Time;durP1;ratioP1;P1;durP2;ratioP2;P2;SDS_P1;SDS_P2;PMS_P1;PMS_P2;Temp;Humidity;BMP_temperature;BMP_pressure;BME280_temperature;BME280_humidity;BME280_pressure;Samples;Min_cycle;Max_cycle;Signal;HPM_P1;HPM_P2
2022/08/11 00:00:00;;;;;;;;;;;12.60;99.90;;;;;;5051362;28;20019;-76
2022/08/11 00:02:27;;;;;;;;;;;12.70;99.90;;;;;;5050648;28;19948;-76
2022/08/11 00:04:53;;;;;;;;;;;12.60;99.90;;;;;;5050977;28;20316;-76
2022/08/11 00:07:19;;;;;;;;;;;12.50;99.90;;;;;;5049246;28;19998;-76
2022/08/11 00:09:45;;;;;;;;;;;12.50;99.90;;;;;;5051402;28;19951;-76
2022/08/11 00:12:14;;;;;;;;;;;12.50;99.90;;;;;;5049694;28;19919;-76
2022/08/11 00:14:41;;;;;;;;;;;12.50;99.90;;;;;;5050745;28;19909;-76
2022/08/11 00:17:08;;;;;;;;;;;12.50;99.90;;;;;;5049294;28;19909;-77
2022/08/11 00:19:35;;;;;;;;;;;12.50;99.90;;;;;;5049788;28;19917;-76
2022/08/11 00:22:02;;;;;;;;;;;12.50;99.90;;;;;;5051005;28;19908;-76
2022/08/11 00:24:35;;;;;;;;;;;12.50;99.90;;;;;;5050275;28;20004;-76
2022/08/11 00:27:02;;;;;;;;;;;12.50;99.90;;;;;;5051014;28;19909;-76
2022/08/11 00:29:27;;;;;;;;;;;12.50;99.90;;;;;;5054646;28;19908;-76
2022/08/11 00:31:53;;;;;;;;;;;12.50;99.90;;;;;;5054375;28;20008;-76
2022/08/11 00:34:21;;;;;;;;;;;12.40;99.90;;;;;;5054477;28;20249;-76
2022/08/11 00:36:50;;;;;;;;;;;12.30;99.90;;;;;;5054999;28;19923;-76
2022/08/11 00:39:16;;;;;;;;;;;12.20;99.90;;;;;;5054881;28;19916;-76
2022/08/11 00:42:00;;;;;;;;;;;12.20;99.90;;;;;;5054425;28;19920;-76
2022/08/11 00:45:04;;;;;;;;;;;12.30;99.90;;;;;;5054118;28;20383;-75
2022/08/11 00:47:39;;;;;;;;;;;12.30;99.90;;;;;;5052055;28;19909;-76
2022/08/11 00:50:21;;;;;;;;;;;12.30;99.90;;;;;;5052097;28;19909;-79
2022/08/11 00:52:52;;;;;;;;;;;12.30;99.90;;;;;;5052666;28;19909;-78
2022/08/11 00:55:32;;;;;;;;;;;12.30;99.90;;;;;;5054142;28;19909;-76
2022/08/11 00:58:15;;;;;;;;;;;12.20;99.90;;;;;;5053265;28;19916;-76
2022/08/11 01:00:52;;;;;;;;;;;12.10;99.90;;;;;;5054557;28;19932;-76
2022/08/11 01:03:32;;;;;;;;;;;12.00;99.90;;;;;;5046995;28;19917;-76
2022/08/11 01:06:17;;;;;;;;;;;12.00;99.90;;;;;;5054357;28;19995;-76
2022/08/11 01:08:42;;;;;;;;;;;12.00;99.90;;;;;;5054063;28;19917;-76
2022/08/11 01:11:08;;;;;;;;;;;11.90;99.90;;;;;;5054318;28;19912;-76
2022/08/11 01:14:04;;;;;;;;;;;11.90;99.90;;;;;;5050434;28;19916;-76
2022/08/11 01:16:48;;;;;;;;;;;11.90;99.90;;;;;;5054019;28;19909;-76
2022/08/11 01:19:24;;;;;;;;;;;11.90;99.90;;;;;;5053342;28;20071;-76
2022/08/11 01:21:49;;;;;;;;;;;11.80;99.90;;;;;;5055548;28;19962;-77
2022/08/11 01:24:18;;;;;;;;;;;11.70;99.90;;;;;;5053344;28;19920;-76
2022/08/11 01:27:09;;;;;;;;;;;11.70;99.90;;;;;;5053904;28;19909;-79
2022/08/11 01:29:59;;;;;;;;;;;11.70;99.90;;;;;;5048396;28;19908;-76
2022/08/11 01:32:36;;;;;;;;;;;11.80;99.90;;;;;;5053345;28;19908;-76
2022/08/11 01:35:20;;;;;;;;;;;11.70;99.90;;;;;;5053400;28;19935;-76
2022/08/11 01:37:52;;;;;;;;;;;11.70;99.90;;;;;;5052577;28;19941;-76
2022/08/11 01:40:44;;;;;;;;;;;11.60;99.90;;;;;;5053277;28;20318;-77
2022/08/11 01:45:53;;;;;;;;;;;11.50;99.90;;;;;;5053761;28;19915;-79
2022/08/11 01:48:34;;;;;;;;;;;11.60;99.90;;;;;;5058265;28;19909;-76
2022/08/11 01:51:18;;;;;;;;;;;11.50;99.90;;;;;;5053230;28;19916;-79
2022/08/11 01:53:49;;;;;;;;;;;11.50;99.90;;;;;;5052112;28;19912;-79
2022/08/11 01:56:15;;;;;;;;;;;11.50;99.90;;;;;;5053487;28;19913;-76
2022/08/11 01:58:40;;;;;;;;;;;11.60;99.90;;;;;;5053350;28;20255;-77
2022/08/11 02:01:24;;;;;;;;;;;11.70;99.90;;;;;;5053207;28;19909;-76
2022/08/11 02:03:55;;;;;;;;;;;11.50;99.90;;;;;;5046259;28;20165;-76
2022/08/11 02:09:15;;;;;;;;;;;11.50;99.90;;;;;;5052719;28;19950;-78
2022/08/11 02:11:44;;;;;;;;;;;11.40;99.90;;;;;;5052818;28;19909;-77
2022/08/11 02:14:28;;;;;;;;;;;11.30;99.90;;;;;;5052511;28;19909;-76
2022/08/11 02:17:12;;;;;;;;;;;11.30;99.90;;;;;;5046540;28;19916;-76
2022/08/11 02:25:48;;;;;;;;;;;11.30;99.90;;;;;;5049148;28;19924;-76
2022/08/11 02:28:34;;;;;;;;;;;11.30;99.90;;;;;;5052120;28;19909;-76
2022/08/11 02:34:14;;;;;;;;;;;11.10;99.90;;;;;;5052048;28;19994;-76
2022/08/11 02:36:43;;;;;;;;;;;11.20;99.90;;;;;;5052498;28;19909;-76
2022/08/11 02:39:10;;;;;;;;;;;11.20;99.90;;;;;;5052361;28;19944;-79
2022/08/11 02:44:39;;;;;;;;;;;11.10;99.90;;;;;;5052128;28;19924;-79
2022/08/11 02:47:13;;;;;;;;;;;11.10;99.90;;;;;;5051861;28;19909;-76
2022/08/11 02:49:54;;;;;;;;;;;11.10;99.90;;;;;;5050330;28;20435;-76
2022/08/11 02:52:51;;;;;;;;;;;11.10;99.90;;;;;;5050595;28;19909;-78
2022/08/11 02:55:20;;;;;;;;;;;11.10;99.90;;;;;;5050254;28;19909;-76
2022/08/11 02:57:52;;;;;;;;;;;11.10;99.90;;;;;;5052229;28;19916;-77
2022/08/11 03:00:18;;;;;;;;;;;11.10;99.90;;;;;;5046066;28;20270;-80
2022/08/11 03:02:50;;;;;;;;;;;11.10;99.90;;;;;;5045052;28;19913;-78
2022/08/11 03:05:35;;;;;;;;;;;11.00;99.90;;;;;;5045701;28;19909;-76
2022/08/11 03:08:07;;;;;;;;;;;11.00;99.90;;;;;;5051270;28;19921;-76
2022/08/11 03:16:43;;;;;;;;;;;11.00;99.90;;;;;;5050853;28;19984;-76
2022/08/11 03:16:45;;;;;;;;;;;10.80;99.90;;;;;;5051869;28;20070;-76
2022/08/11 03:19:30;;;;;;;;;;;10.70;99.90;;;;;;5051382;28;19913;-76
2022/08/11 03:21:58;;;;;;;;;;;10.70;99.90;;;;;;5051447;28;20255;-76
2022/08/11 03:24:32;;;;;;;;;;;10.70;99.90;;;;;;5050840;28;19916;-76
2022/08/11 03:27:16;;;;;;;;;;;10.70;99.90;;;;;;5051865;28;19917;-78
2022/08/11 03:29:45;;;;;;;;;;;10.60;99.90;;;;;;5050486;28;19966;-76
2022/08/11 03:32:20;;;;;;;;;;;10.70;99.90;;;;;;5051302;28;19909;-78
2022/08/11 03:34:47;;;;;;;;;;;10.60;99.90;;;;;;5045467;28;19955;-76
2022/08/11 03:37:53;;;;;;;;;;;10.60;99.90;;;;;;5051573;28;19936;-77
2022/08/11 03:43:11;;;;;;;;;;;10.50;99.90;;;;;;5051067;28;20423;-76
2022/08/11 03:46:03;;;;;;;;;;;10.50;99.90;;;;;;5051575;28;19909;-78
2022/08/11 03:48:38;;;;;;;;;;;10.50;99.90;;;;;;5050571;28;19913;-76
2022/08/11 03:51:22;;;;;;;;;;;10.60;99.90;;;;;;5048332;28;20248;-77
2022/08/11 03:53:55;;;;;;;;;;;10.70;99.90;;;;;;5050902;28;19915;-76
2022/08/11 03:56:39;;;;;;;;;;;10.80;99.90;;;;;;5051368;28;20400;-76
2022/08/11 03:59:27;;;;;;;;;;;10.50;99.90;;;;;;5051379;28;20046;-76
2022/08/11 04:01:59;;;;;;;;;;;10.60;99.90;;;;;;5046326;28;20038;-77
2022/08/11 04:04:47;;;;;;;;;;;10.60;99.90;;;;;;5050469;28;20357;-76
2022/08/11 04:07:32;;;;;;;;;;;10.50;99.90;;;;;;5051059;28;20405;-79
2022/08/11 04:10:10;;;;;;;;;;;10.50;99.90;;;;;;5051246;28;19916;-76
2022/08/11 04:12:35;;;;;;;;;;;10.40;99.90;;;;;;5050677;28;19909;-78
2022/08/11 04:18:13;;;;;;;;;;;10.50;99.90;;;;;;5050878;28;20029;-78
2022/08/11 04:20:57;;;;;;;;;;;10.50;99.90;;;;;;5051625;28;20289;-77
2022/08/11 04:23:25;;;;;;;;;;;10.60;99.90;;;;;;5050841;28;19966;-76
2022/08/11 04:26:02;;;;;;;;;;;10.60;99.90;;;;;;5051971;28;19995;-76
2022/08/11 04:28:43;;;;;;;;;;;10.60;99.90;;;;;;5051067;28;19909;-76
2022/08/11 04:31:27;;;;;;;;;;;10.60;99.90;;;;;;5043246;28;20321;-76
2022/08/11 04:34:13;;;;;;;;;;;10.70;99.90;;;;;;5044071;28;19913;-77
2022/08/11 04:39:55;;;;;;;;;;;10.70;99.90;;;;;;5051238;28;19915;-75
2022/08/11 04:45:25;;;;;;;;;;;10.90;99.90;;;;;;5045370;28;19920;-75
2022/08/11 05:02:17;;;;;;;;;;;10.90;99.90;;;;;;5050784;28;19963;-76
2022/08/11 05:07:51;;;;;;;;;;;11.10;99.90;;;;;;5051387;28;19932;-75
2022/08/11 05:10:37;;;;;;;;;;;11.10;99.90;;;;;;5051007;28;20270;-76
2022/08/11 05:35:48;;;;;;;;;;;12.40;99.90;;;;;;5054931;28;19916;-76
2022/08/11 05:57:48;;;;;;;;;;;13.50;99.90;;;;;;5054321;28;19967;-76
2022/08/11 06:00:14;;;;;;;;;;;13.60;99.90;;;;;;5052344;28;20372;-76
2022/08/11 06:02:44;;;;;;;;;;;13.80;99.90;;;;;;5052834;28;19908;-75
2022/08/11 06:05:10;;;;;;;;;;;14.00;99.90;;;;;;5052545;28;19909;-76
2022/08/11 06:07:36;;;;;;;;;;;14.10;99.90;;;;;;5053241;28;19991;-76
2022/08/11 06:10:02;;;;;;;;;;;14.20;99.90;;;;;;5053386;28;19909;-76
2022/08/11 06:12:34;;;;;;;;;;;14.50;99.90;;;;;;5051760;28;19936;-76
2022/08/11 06:15:01;;;;;;;;;;;14.60;99.90;;;;;;5052243;28;20325;-76
2022/08/11 06:17:27;;;;;;;;;;;14.90;99.90;;;;;;5056294;28;19954;-75
2022/08/11 06:20:00;;;;;;;;;;;15.00;99.90;;;;;;5052822;28;19909;-76
2022/08/11 06:22:26;;;;;;;;;;;15.20;99.90;;;;;;5052852;28;19986;-76
2022/08/11 06:24:54;;;;;;;;;;;15.40;99.90;;;;;;5051936;28;19975;-76
2022/08/11 06:27:20;;;;;;;;;;;15.60;99.90;;;;;;5045322;28;20294;-75
2022/08/11 06:29:50;;;;;;;;;;;15.70;99.90;;;;;;5045556;28;19916;-75
2022/08/11 06:32:16;;;;;;;;;;;15.90;99.90;;;;;;5048094;28;20000;-75
2022/08/11 06:34:51;;;;;;;;;;;15.90;99.90;;;;;;5048909;28;19923;-75
2022/08/11 06:37:36;;;;;;;;;;;16.20;99.90;;;;;;5037811;28;19909;-75
2022/08/11 06:40:10;;;;;;;;;;;16.40;99.90;;;;;;5049817;28;19915;-75
2022/08/11 06:42:35;;;;;;;;;;;16.40;99.90;;;;;;5040272;28;19909;-75
2022/08/11 06:45:20;;;;;;;;;;;16.60;99.90;;;;;;5041818;28;19912;-75
2022/08/11 06:47:46;;;;;;;;;;;16.80;99.90;;;;;;5049124;28;19909;-75
2022/08/11 06:53:00;;;;;;;;;;;17.50;99.90;;;;;;5051232;28;19935;-75
2022/08/11 07:01:04;;;;;;;;;;;18.10;99.90;;;;;;5048588;28;19915;-76
2022/08/11 07:03:31;;;;;;;;;;;18.30;99.90;;;;;;5050062;28;20369;-75
2022/08/11 07:06:20;;;;;;;;;;;18.30;99.90;;;;;;5046501;28;19916;-76
2022/08/11 07:17:22;;;;;;;;;;;19.90;95.90;;;;;;5052536;28;20437;-75
2022/08/11 07:31:13;;;;;;;;;;;23.00;89.50;;;;;;5051603;28;19915;-76
2022/08/11 07:33:54;;;;;;;;;;;23.80;81.60;;;;;;5049468;28;19913;-76
2022/08/11 07:36:21;;;;;;;;;;;24.20;76.50;;;;;;5049327;28;19944;-76
2022/08/11 07:38:50;;;;;;;;;;;24.80;75.60;;;;;;5047603;28;20365;-76
2022/08/11 07:41:17;;;;;;;;;;;25.00;74.70;;;;;;5051170;28;19909;-76
2022/08/11 07:43:47;;;;;;;;;;;25.10;71.90;;;;;;5051444;28;19963;-76
2022/08/11 07:54:29;;;;;;;;;;;26.60;69.70;;;;;;5051393;28;20442;-77
2022/08/11 07:56:55;;;;;;;;;;;26.30;68.10;;;;;;5045760;28;19962;-77
2022/08/11 08:18:34;;;;;;;;;;;28.50;61.50;;;;;;5050766;28;20431;-77
2022/08/11 08:21:10;;;;;;;;;;;28.00;59.40;;;;;;5050784;28;19912;-77
2022/08/11 08:23:37;;;;;;;;;;;28.20;61.90;;;;;;5045114;28;19913;-77
2022/08/11 08:26:57;;;;;;;;;;;28.00;61.20;;;;;;5050169;28;19913;-77
2022/08/11 08:30:46;;;;;;;;;;;27.50;60.70;;;;;;5050818;28;19909;-77
2022/08/11 08:31:42;;;;;;;;;;;28.00;57.90;;;;;;5043917;28;19916;-76
2022/08/11 08:34:08;;;;;;;;;;;27.40;60.70;;;;;;5050710;28;19947;-77
2022/08/11 08:36:34;;;;;;;;;;;27.70;60.00;;;;;;5051231;28;19959;-78
2022/08/11 08:38:59;;;;;;;;;;;28.20;59.10;;;;;;5051194;28;20330;-77
2022/08/11 08:41:28;;;;;;;;;;;28.30;57.30;;;;;;5048417;28;19974;-77
2022/08/11 08:43:56;;;;;;;;;;;28.60;60.50;;;;;;5050589;28;19917;-77
2022/08/11 08:46:26;;;;;;;;;;;29.00;58.40;;;;;;5051124;28;19909;-78
2022/08/11 08:48:52;;;;;;;;;;;29.00;57.10;;;;;;5046461;28;19908;-79
2022/08/11 08:51:33;;;;;;;;;;;28.10;56.60;;;;;;5057163;28;19944;-78
2022/08/11 08:54:19;;;;;;;;;;;27.40;57.10;;;;;;5048049;28;19913;-77
2022/08/11 08:56:45;;;;;;;;;;;27.70;58.90;;;;;;5052297;28;20331;-77
2022/08/11 08:59:14;;;;;;;;;;;28.40;55.20;;;;;;5060004;28;19908;-77
2022/08/11 09:01:42;;;;;;;;;;;29.10;55.20;;;;;;5053767;28;19920;-76
2022/08/11 09:04:08;;;;;;;;;;;30.00;55.00;;;;;;5053576;28;19913;-77
2022/08/11 09:06:38;;;;;;;;;;;29.80;50.40;;;;;;5054046;28;20390;-76
2022/08/11 09:09:04;;;;;;;;;;;28.30;53.60;;;;;;5054099;28;20362;-77
2022/08/11 09:14:14;;;;;;;;;;;29.60;52.40;;;;;;5053188;28;19916;-77
2022/08/11 09:16:43;;;;;;;;;;;29.40;54.60;;;;;;5053191;28;20212;-79
2022/08/11 09:19:09;;;;;;;;;;;29.90;52.90;;;;;;5054926;28;19916;-76
2022/08/11 09:21:39;;;;;;;;;;;29.40;51.70;;;;;;5053859;28;20297;-76
2022/08/11 09:26:58;;;;;;;;;;;28.90;53.20;;;;;;5053752;28;20010;-79
2022/08/11 09:29:28;;;;;;;;;;;29.10;52.50;;;;;;5051643;28;19915;-76
2022/08/11 09:31:54;;;;;;;;;;;29.40;53.60;;;;;;5053063;28;19909;-78
2022/08/11 09:34:20;;;;;;;;;;;31.00;50.50;;;;;;5052906;28;20014;-77
2022/08/11 09:42:15;;;;;;;;;;;31.60;48.20;;;;;;5047928;28;19920;-77
2022/08/11 09:44:48;;;;;;;;;;;30.90;49.00;;;;;;5052933;28;19913;-79
2022/08/11 09:47:33;;;;;;;;;;;31.20;48.60;;;;;;5053434;28;19916;-78
2022/08/11 09:49:59;;;;;;;;;;;30.90;48.70;;;;;;5051455;28;19913;-76
2022/08/11 09:52:25;;;;;;;;;;;31.80;46.20;;;;;;5052726;28;19924;-76
2022/08/11 09:54:52;;;;;;;;;;;32.50;45.50;;;;;;5052715;28;19916;-76
2022/08/11 10:00:09;;;;;;;;;;;31.30;45.00;;;;;;5045136;28;19916;-76
2022/08/11 10:02:39;;;;;;;;;;;32.10;45.00;;;;;;5052820;28;19909;-78
2022/08/11 10:07:51;;;;;;;;;;;31.70;44.70;;;;;;5052895;28;20000;-78
2022/08/11 10:10:21;;;;;;;;;;;31.60;46.20;;;;;;5053143;28;19936;-76
2022/08/11 10:12:56;;;;;;;;;;;32.30;44.10;;;;;;5052679;28;19995;-76
2022/08/11 10:15:37;;;;;;;;;;;31.60;44.00;;;;;;5052476;28;20058;-78
2022/08/11 10:20:54;;;;;;;;;;;33.20;48.00;;;;;;5048465;28;19915;-76
2022/08/11 10:28:49;;;;;;;;;;;31.70;43.60;;;;;;5046991;28;19916;-75
2022/08/11 10:34:00;;;;;;;;;;;33.40;41.90;;;;;;5052513;28;19978;-76
2022/08/11 10:36:27;;;;;;;;;;;32.40;42.60;;;;;;5052631;28;19944;-76
2022/08/11 10:38:53;;;;;;;;;;;32.80;42.80;;;;;;5052722;28;19952;-76
2022/08/11 10:44:05;;;;;;;;;;;32.20;39.50;;;;;;5052187;28;19919;-78
2022/08/11 10:49:14;;;;;;;;;;;32.90;46.50;;;;;;5051206;28;20282;-76
2022/08/11 10:59:53;;;;;;;;;;;33.70;39.10;;;;;;5046624;28;20412;-76
2022/08/11 11:02:20;;;;;;;;;;;32.40;41.50;;;;;;5051430;28;19913;-77
2022/08/11 11:04:52;;;;;;;;;;;32.90;41.70;;;;;;5051241;28;19913;-77
2022/08/11 11:07:23;;;;;;;;;;;33.90;42.90;;;;;;5050386;28;19908;-75
2022/08/11 11:09:49;;;;;;;;;;;34.40;38.70;;;;;;5051112;28;20346;-75
2022/08/11 11:18:03;;;;;;;;;;;33.90;41.60;;;;;;5050919;28;19941;-75
2022/08/11 11:20:56;;;;;;;;;;;33.30;41.40;;;;;;5044150;28;19917;-75
2022/08/11 11:23:21;;;;;;;;;;;33.10;42.00;;;;;;5054993;28;19913;-75
2022/08/11 11:26:05;;;;;;;;;;;32.30;42.80;;;;;;5050142;28;20169;-75
2022/08/11 11:28:57;;;;;;;;;;;32.40;41.50;;;;;;5044705;28;20030;-75
2022/08/11 11:31:29;;;;;;;;;;;32.40;41.00;;;;;;5049826;28;20424;-75
2022/08/11 11:34:14;;;;;;;;;;;32.10;42.80;;;;;;5049468;28;19944;-76
2022/08/11 11:36:45;;;;;;;;;;;32.10;42.20;;;;;;5044336;28;19917;-76
2022/08/11 11:39:10;;;;;;;;;;;33.00;42.50;;;;;;5044204;28;19920;-75
2022/08/11 11:41:37;;;;;;;;;;;31.50;41.30;;;;;;5050072;28;19913;-76
2022/08/11 11:44:03;;;;;;;;;;;32.00;41.70;;;;;;5049634;28;20469;-75
2022/08/11 11:46:29;;;;;;;;;;;30.40;46.10;;;;;;5050593;28;19960;-75
2022/08/11 11:48:55;;;;;;;;;;;31.30;44.00;;;;;;5045604;28;19909;-75
2022/08/11 11:51:21;;;;;;;;;;;31.50;41.20;;;;;;5054615;28;20294;-75
2022/08/11 11:53:47;;;;;;;;;;;31.20;40.80;;;;;;5044712;28;20332;-76
2022/08/11 11:56:13;;;;;;;;;;;30.20;44.20;;;;;;5055042;28;19948;-75
2022/08/11 12:01:24;;;;;;;;;;;29.20;43.30;;;;;;5040489;28;19995;-75
2022/08/11 12:03:50;;;;;;;;;;;29.80;43.90;;;;;;5049369;28;19952;-75
2022/08/11 12:06:16;;;;;;;;;;;30.00;43.30;;;;;;5048585;28;20078;-76
2022/08/11 12:08:43;;;;;;;;;;;30.00;43.10;;;;;;5050041;28;19916;-75
2022/08/11 12:13:55;;;;;;;;;;;30.60;42.60;;;;;;5049537;28;19920;-75
2022/08/11 12:16:21;;;;;;;;;;;30.00;42.10;;;;;;5048855;28;19915;-75
2022/08/11 12:18:49;;;;;;;;;;;30.80;42.90;;;;;;5049371;28;19934;-75
2022/08/11 12:21:15;;;;;;;;;;;30.30;41.90;;;;;;5043991;28;19919;-77
2022/08/11 12:29:11;;;;;;;;;;;31.00;41.30;;;;;;5048244;28;19920;-75
2022/08/11 12:31:38;;;;;;;;;;;31.30;40.50;;;;;;5052077;28;19913;-76
2022/08/11 12:34:04;;;;;;;;;;;32.10;39.70;;;;;;5052791;28;19908;-75
2022/08/11 12:36:37;;;;;;;;;;;33.10;37.00;;;;;;5053892;28;19913;-76
2022/08/11 12:39:05;;;;;;;;;;;34.60;36.50;;;;;;5053780;28;19909;-76
2022/08/11 12:47:01;;;;;;;;;;;35.80;35.40;;;;;;5053660;28;19915;-75
2022/08/11 12:52:16;;;;;;;;;;;35.40;33.50;;;;;;5050566;28;20003;-75
2022/08/11 12:54:50;;;;;;;;;;;36.40;34.30;;;;;;5058903;28;20388;-75
2022/08/11 13:05:32;;;;;;;;;;;36.60;32.60;;;;;;5053465;28;20286;-75
2022/08/11 13:07:59;;;;;;;;;;;36.10;31.30;;;;;;5053272;28;19917;-75
2022/08/11 13:13:10;;;;;;;;;;;35.40;33.90;;;;;;5052335;28;19917;-75
2022/08/11 13:15:35;;;;;;;;;;;35.80;33.40;;;;;;5053445;28;19909;-75
2022/08/11 13:18:01;;;;;;;;;;;36.30;32.50;;;;;;5052822;28;19993;-75
2022/08/11 13:20:27;;;;;;;;;;;35.70;33.40;;;;;;5050202;28;20007;-77
2022/08/11 13:22:54;;;;;;;;;;;36.10;31.40;;;;;;5050632;28;19943;-75
2022/08/11 13:25:21;;;;;;;;;;;36.10;34.40;;;;;;5049597;28;20389;-75
2022/08/11 13:27:47;;;;;;;;;;;35.80;32.20;;;;;;5052131;28;19909;-78
2022/08/11 13:32:58;;;;;;;;;;;35.30;33.50;;;;;;5051881;28;19971;-75
2022/08/11 13:35:25;;;;;;;;;;;36.10;33.80;;;;;;5051569;28;19913;-75
2022/08/11 13:37:51;;;;;;;;;;;36.60;32.30;;;;;;5051478;28;19940;-77
2022/08/11 13:40:18;;;;;;;;;;;36.30;30.70;;;;;;5052618;28;19959;-76
2022/08/11 13:42:45;;;;;;;;;;;35.70;31.80;;;;;;5051211;28;20433;-76
2022/08/11 13:45:10;;;;;;;;;;;35.70;31.70;;;;;;5052360;28;19912;-76
2022/08/11 13:47:37;;;;;;;;;;;34.80;31.60;;;;;;5050781;28;20286;-76
2022/08/11 13:50:04;;;;;;;;;;;36.00;33.20;;;;;;5047445;28;19919;-76
2022/08/11 13:52:30;;;;;;;;;;;35.50;31.90;;;;;;5045376;28;19979;-75
2022/08/11 13:54:56;;;;;;;;;;;33.50;35.20;;;;;;5048513;28;19999;-76
2022/08/11 13:57:22;;;;;;;;;;;34.30;33.20;;;;;;5053098;28;20353;-79
2022/08/11 13:59:53;;;;;;;;;;;35.80;33.80;;;;;;5052382;28;19956;-78
2022/08/11 14:02:21;;;;;;;;;;;35.10;33.60;;;;;;5043649;28;19915;-76
2022/08/11 14:04:53;;;;;;;;;;;35.70;32.90;;;;;;5046128;28;19920;-76
2022/08/11 14:07:22;;;;;;;;;;;34.90;33.60;;;;;;5046398;28;19909;-76
2022/08/11 14:09:52;;;;;;;;;;;35.70;32.70;;;;;;5052350;28;20285;-76
2022/08/11 14:15:27;;;;;;;;;;;34.50;31.90;;;;;;5052260;28;19993;-75
2022/08/11 14:18:16;;;;;;;;;;;34.30;35.40;;;;;;5045076;28;19952;-76
2022/08/11 14:23:27;;;;;;;;;;;35.40;32.30;;;;;;5049947;28;19919;-77
2022/08/11 14:28:38;;;;;;;;;;;34.40;35.10;;;;;;5046852;28;19931;-77
2022/08/11 14:31:06;;;;;;;;;;;34.80;33.70;;;;;;5052045;28;19909;-76
2022/08/11 14:33:32;;;;;;;;;;;34.90;34.20;;;;;;5050108;28;19940;-76
2022/08/11 14:35:58;;;;;;;;;;;34.10;34.00;;;;;;5051084;28;19916;-76
2022/08/11 14:38:24;;;;;;;;;;;35.10;33.50;;;;;;5051803;28;19909;-76
2022/08/11 14:49:04;;;;;;;;;;;33.70;34.70;;;;;;5052508;28;19967;-76
2022/08/11 14:51:29;;;;;;;;;;;34.50;35.80;;;;;;5050843;28;20342;-76
2022/08/11 14:56:34;;;;;;;;;;;34.20;33.80;;;;;;5048396;28;20420;-76
2022/08/11 14:56:43;;;;;;;;;;;33.80;32.90;;;;;;5048556;28;19912;-75
2022/08/11 14:59:09;;;;;;;;;;;35.00;35.20;;;;;;5056063;28;19917;-74
2022/08/11 15:04:20;;;;;;;;;;;34.60;33.30;;;;;;5050421;28;20017;-76
2022/08/11 15:06:46;;;;;;;;;;;35.10;35.90;;;;;;5050891;28;19909;-75
2022/08/11 15:09:11;;;;;;;;;;;34.40;35.10;;;;;;5051313;28;19974;-74
2022/08/11 15:17:07;;;;;;;;;;;33.50;35.40;;;;;;5050462;28;19915;-76
2022/08/11 15:19:33;;;;;;;;;;;32.20;36.90;;;;;;5053739;28;19909;-76
2022/08/11 15:24:18;;;;;;;;;;;32.20;38.00;;;;;;5044831;28;19929;-76
2022/08/11 15:25:00;;;;;;;;;;;31.50;37.90;;;;;;5051440;28;19913;-76
2022/08/11 15:38:35;;;;;;;;;;;29.00;41.60;;;;;;5052102;28;20007;-76
2022/08/11 15:46:39;;;;;;;;;;;28.40;43.50;;;;;;5054339;28;19915;-76
2022/08/11 15:49:21;;;;;;;;;;;28.70;43.60;;;;;;5052157;28;20369;-75
2022/08/11 15:52:09;;;;;;;;;;;28.90;45.30;;;;;;5051979;28;20441;-75
2022/08/11 15:54:39;;;;;;;;;;;28.70;43.60;;;;;;5045082;28;19932;-75
2022/08/11 15:57:04;;;;;;;;;;;28.50;42.80;;;;;;5051280;28;19955;-74
2022/08/11 16:04:44;;;;;;;;;;;28.20;44.70;;;;;;5050553;28;20000;-75
2022/08/11 16:07:10;;;;;;;;;;;28.10;44.50;;;;;;5051105;28;19912;-75
2022/08/11 16:09:54;;;;;;;;;;;28.20;45.20;;;;;;5051191;28;19927;-75
2022/08/11 16:12:21;;;;;;;;;;;28.30;45.20;;;;;;5050875;28;19982;-75
2022/08/11 16:17:39;;;;;;;;;;;28.10;44.00;;;;;;5051170;28;20015;-76
2022/08/11 16:20:06;;;;;;;;;;;27.90;44.00;;;;;;5049600;28;19908;-75
2022/08/11 16:22:41;;;;;;;;;;;27.90;44.90;;;;;;5050751;28;19909;-74
2022/08/11 16:25:09;;;;;;;;;;;27.80;45.40;;;;;;5050629;28;19913;-75
2022/08/11 16:27:39;;;;;;;;;;;27.70;42.60;;;;;;5051218;28;19992;-75
2022/08/11 16:30:05;;;;;;;;;;;27.80;44.40;;;;;;5051031;28;19936;-75
2022/08/11 16:32:32;;;;;;;;;;;27.60;44.40;;;;;;5050906;28;19909;-75
2022/08/11 16:40:29;;;;;;;;;;;27.50;45.50;;;;;;5046399;28;19916;-75
2022/08/11 16:48:27;;;;;;;;;;;27.40;45.20;;;;;;5053018;28;19961;-75
2022/08/11 16:50:53;;;;;;;;;;;27.30;45.10;;;;;;5048805;28;19916;-74
2022/08/11 16:53:18;;;;;;;;;;;27.10;45.80;;;;;;5048238;28;19913;-73
2022/08/11 16:55:47;;;;;;;;;;;27.10;46.10;;;;;;5050269;28;20294;-74
2022/08/11 17:00:57;;;;;;;;;;;27.00;45.20;;;;;;5046760;28;19916;-74
2022/08/11 17:14:37;;;;;;;;;;;26.50;46.50;;;;;;5053868;28;19919;-75
2022/08/11 17:17:12;;;;;;;;;;;26.60;45.90;;;;;;5050700;28;20388;-74
2022/08/11 17:19:40;;;;;;;;;;;26.50;45.80;;;;;;5053803;28;19916;-76
2022/08/11 17:24:51;;;;;;;;;;;26.20;47.80;;;;;;5053626;28;19959;-76
2022/08/11 17:27:18;;;;;;;;;;;26.10;49.60;;;;;;5054211;28;20362;-76
2022/08/11 17:29:49;;;;;;;;;;;26.10;48.90;;;;;;5054087;28;20293;-75
2022/08/11 17:37:49;;;;;;;;;;;25.90;47.40;;;;;;5049449;28;19979;-75
2022/08/11 17:40:17;;;;;;;;;;;25.70;48.80;;;;;;5053685;28;19995;-75
2022/08/11 17:48:26;;;;;;;;;;;25.50;51.00;;;;;;5049144;28;19913;-75
2022/08/11 17:50:59;;;;;;;;;;;25.10;53.10;;;;;;5053064;28;19909;-75
2022/08/11 18:01:43;;;;;;;;;;;24.50;53.50;;;;;;5053670;28;20421;-75
2022/08/11 18:04:10;;;;;;;;;;;24.50;52.60;;;;;;5052667;28;19923;-75
2022/08/11 18:06:36;;;;;;;;;;;24.20;56.10;;;;;;5052723;28;20394;-74
